createdAt,value
2023-04-19T00:01:15.139Z,8.33
2023-04-19T00:04:05.319Z,7.30
2023-04-19T00:06:52.964Z,5.57
2023-04-19T00:09:39.702Z,8.97
2023-04-19T00:12:26.421Z,5.40
2023-04-19T00:15:13.227Z,6.90
2023-04-19T00:17:59.970Z,4.40
2023-04-19T00:20:48.827Z,3.70
2023-04-19T00:23:35.810Z,6.67
2023-04-19T00:26:22.372Z,5.87
2023-04-19T00:29:12.228Z,3.83
2023-04-19T00:31:58.738Z,6.70
2023-04-19T00:34:45.741Z,5.17
2023-04-19T00:37:33.791Z,4.47
2023-04-19T00:40:21.105Z,5.67
2023-04-19T00:43:07.972Z,4.13
2023-04-19T00:45:55.043Z,3.77
2023-04-19T00:48:41.570Z,6.47
2023-04-19T00:51:28.686Z,9.33
2023-04-19T00:54:17.429Z,4.87
2023-04-19T00:57:04.152Z,4.87
2023-04-19T00:59:51.608Z,9.13
2023-04-19T01:02:38.616Z,5.43
2023-04-19T01:05:25.214Z,7.27
2023-04-19T01:08:12.145Z,5.10
2023-04-19T01:11:00.358Z,8.07
2023-04-19T01:13:47.119Z,9.47
2023-04-19T01:16:33.931Z,6.27
2023-04-19T01:19:21.414Z,8.77
2023-04-19T01:22:07.881Z,6.93
2023-04-19T01:24:57.604Z,8.33
2023-04-19T01:27:44.502Z,8.93
2023-04-19T01:30:31.398Z,7.57
2023-04-19T01:33:18.108Z,3.50
2023-04-19T01:36:05.321Z,6.07
2023-04-19T01:38:52.114Z,7.77
2023-04-19T01:41:40.292Z,7.57
2023-04-19T01:44:27.165Z,4.10
2023-04-19T01:47:13.967Z,6.13
2023-04-19T01:50:00.832Z,3.67
2023-04-19T01:52:47.291Z,5.33
2023-04-19T01:55:34.204Z,4.10
2023-04-19T01:58:22.498Z,6.20
2023-04-19T02:01:12.695Z,5.60
2023-04-19T02:03:59.590Z,5.43
2023-04-19T02:06:46.323Z,6.30
2023-04-19T02:09:35.818Z,10.03
2023-04-19T02:12:23.533Z,5.47
2023-04-19T02:15:12.127Z,6.80
2023-04-19T02:18:00.321Z,8.23
2023-04-19T02:20:47.079Z,4.87
2023-04-19T02:23:33.906Z,4.53
2023-04-19T02:26:20.821Z,5.07
2023-04-19T02:29:08.079Z,4.07
2023-04-19T02:31:56.082Z,2.30
2023-04-19T02:34:42.850Z,6.87
2023-04-19T02:37:29.692Z,5.13
2023-04-19T02:40:17.186Z,3.47
2023-04-19T02:43:05.082Z,4.67
2023-04-19T02:45:52.349Z,3.23
2023-04-19T02:48:42.307Z,7.30
2023-04-19T02:51:29.600Z,3.57
2023-04-19T02:54:17.013Z,3.27
2023-04-19T02:57:05.174Z,3.80
2023-04-19T02:59:51.858Z,3.60
2023-04-19T03:02:39.579Z,4.30
2023-04-19T03:05:28.572Z,6.33
2023-04-19T03:08:15.293Z,3.87
2023-04-19T03:11:04.122Z,6.80
2023-04-19T03:13:50.882Z,3.87
2023-04-19T03:16:38.088Z,4.00
2023-04-19T03:19:25.070Z,3.23
2023-04-19T03:22:13.644Z,3.97
2023-04-19T03:25:00.369Z,4.70
2023-04-19T03:27:48.166Z,6.50
2023-04-19T03:30:37.940Z,4.50
2023-04-19T03:33:24.791Z,9.67
2023-04-19T03:36:11.970Z,4.10
2023-04-19T03:39:03.975Z,3.50
2023-04-19T03:41:50.972Z,8.53
2023-04-19T03:44:56.462Z,10.33
2023-04-19T03:47:44.330Z,6.63
2023-04-19T03:50:30.973Z,3.13
2023-04-19T03:53:18.983Z,4.80
2023-04-19T03:56:07.250Z,5.63
2023-04-19T03:58:54.310Z,3.50
2023-04-19T04:01:42.436Z,3.33
2023-04-19T04:04:29.848Z,3.87
2023-04-19T04:07:16.892Z,10.17
2023-04-19T04:10:03.692Z,5.87
2023-04-19T04:12:56.299Z,4.37
2023-04-19T04:15:55.792Z,4.97
2023-04-19T04:18:42.789Z,6.33
2023-04-19T04:21:36.805Z,3.20
2023-04-19T04:24:26.740Z,4.97
2023-04-19T04:27:26.276Z,4.03
2023-04-19T04:30:17.426Z,3.07
2023-04-19T04:33:04.317Z,6.37
2023-04-19T04:35:55.931Z,5.20
2023-04-19T04:38:46.067Z,8.80
2023-04-19T04:41:32.516Z,3.03
2023-04-19T04:44:21.041Z,3.53
2023-04-19T04:47:09.123Z,2.70
2023-04-19T04:50:04.691Z,5.47
2023-04-19T04:52:53.867Z,2.83
2023-04-19T04:55:49.206Z,5.60
2023-04-19T04:58:36.035Z,2.37
2023-04-19T05:01:26.416Z,3.77
2023-04-19T05:04:14.708Z,6.17
2023-04-19T05:07:04.301Z,7.67
2023-04-19T05:09:52.297Z,8.70
2023-04-19T05:12:44.161Z,5.80
2023-04-19T05:15:33.281Z,4.77
2023-04-19T05:18:21.739Z,2.40
2023-04-19T05:21:12.374Z,4.03
2023-04-19T05:24:00.935Z,5.27
2023-04-19T05:26:47.765Z,2.93
2023-04-19T05:29:34.990Z,7.13
2023-04-19T05:32:21.792Z,3.07
2023-04-19T05:35:13.870Z,2.70
2023-04-19T05:38:01.865Z,1.93
2023-04-19T05:40:48.697Z,3.73
2023-04-19T05:43:35.491Z,3.37
2023-04-19T05:46:23.171Z,2.43
2023-04-19T05:49:09.806Z,5.00
2023-04-19T05:52:15.038Z,2.90
2023-04-19T05:55:11.106Z,4.80
2023-04-19T05:58:03.353Z,2.67
2023-04-19T06:00:51.742Z,3.57
2023-04-19T06:03:41.545Z,3.00
2023-04-19T06:06:28.588Z,2.53
2023-04-19T06:09:15.355Z,3.60
2023-04-19T06:12:03.573Z,3.67
2023-04-19T06:14:50.277Z,2.37
2023-04-19T06:17:37.046Z,5.37
2023-04-19T06:20:23.782Z,4.40
2023-04-19T06:23:12.878Z,5.10
2023-04-19T06:25:59.346Z,5.90
2023-04-19T06:28:47.551Z,3.23
2023-04-19T06:31:34.737Z,3.63
2023-04-19T06:34:21.257Z,2.70
2023-04-19T06:37:08.105Z,2.43
2023-04-19T06:39:54.851Z,2.87
2023-04-19T06:42:41.666Z,5.53
2023-04-19T06:45:30.127Z,4.97
2023-04-19T06:48:16.477Z,8.93
2023-04-19T06:51:03.398Z,5.20
2023-04-19T06:53:50.915Z,3.07
2023-04-19T06:56:42.127Z,6.23
2023-04-19T06:59:31.715Z,3.53
2023-04-19T07:02:19.564Z,6.60
2023-04-19T07:05:07.982Z,6.23
2023-04-19T07:07:54.462Z,5.60
2023-04-19T07:10:43.224Z,2.80
2023-04-19T07:13:30.072Z,6.13
2023-04-19T07:16:16.785Z,5.00
2023-04-19T07:19:04.759Z,4.20
2023-04-19T07:21:53.026Z,5.63
2023-04-19T07:24:41.859Z,4.27
2023-04-19T07:27:28.677Z,3.30
2023-04-19T07:30:15.415Z,4.53
2023-04-19T07:33:04.494Z,4.77
2023-04-19T07:35:52.609Z,6.93
2023-04-19T07:38:39.161Z,2.13
2023-04-19T07:41:25.951Z,7.40
2023-04-19T07:44:13.766Z,3.47
2023-04-19T07:47:00.928Z,4.37
2023-04-19T07:49:47.612Z,7.57
2023-04-19T07:52:35.830Z,3.93
2023-04-19T07:55:22.385Z,8.23
2023-04-19T07:58:09.181Z,7.23
2023-04-19T08:00:56.011Z,5.07
2023-04-19T08:03:43.229Z,4.73
2023-04-19T08:06:30.899Z,3.77
2023-04-19T08:09:18.671Z,4.13
2023-04-19T08:12:05.636Z,3.13
2023-04-19T08:15:02.520Z,4.60
2023-04-19T08:17:54.337Z,4.70
2023-04-19T08:20:42.681Z,3.83
2023-04-19T08:23:34.965Z,5.73
2023-04-19T08:26:33.217Z,3.87
2023-04-19T08:29:20.342Z,4.13
2023-04-19T08:32:07.407Z,2.90
2023-04-19T08:34:54.050Z,3.63
2023-04-19T08:37:40.848Z,5.70
2023-04-19T08:40:27.740Z,7.70
2023-04-19T08:43:18.206Z,7.70
2023-04-19T08:46:05.799Z,3.07
2023-04-19T08:48:53.230Z,7.23
2023-04-19T08:51:41.657Z,6.47
2023-04-19T08:54:30.368Z,2.30
2023-04-19T08:57:16.985Z,5.07
2023-04-19T09:00:08.067Z,3.10
2023-04-19T09:02:56.123Z,3.87
2023-04-19T09:05:43.414Z,5.57
2023-04-19T09:08:31.327Z,2.93
2023-04-19T09:11:17.970Z,2.93
2023-04-19T09:14:09.661Z,4.07
2023-04-19T09:17:14.705Z,6.23
2023-04-19T09:20:01.190Z,5.87
2023-04-19T09:23:06.137Z,2.93
2023-04-19T09:26:21.479Z,7.77
2023-04-19T09:29:03.079Z,5.77
2023-04-19T09:31:59.998Z,9.57
2023-04-19T09:34:53.485Z,5.40
2023-04-19T09:38:04.038Z,2.60
2023-04-19T09:40:50.374Z,4.33
2023-04-19T09:44:00.885Z,6.97
2023-04-19T09:46:45.680Z,1.37
2023-04-19T09:49:48.109Z,7.07
2023-04-19T09:52:36.993Z,6.07
2023-04-19T09:55:27.347Z,4.87
2023-04-19T09:58:15.094Z,5.23
2023-04-19T10:01:13.287Z,5.33
2023-04-19T10:04:14.913Z,7.20
2023-04-19T10:10:16.130Z,5.70
2023-04-19T10:13:18.850Z,4.97
2023-04-19T10:16:18.352Z,4.00
2023-04-19T10:19:10.209Z,3.03
2023-04-19T10:21:57.568Z,6.37
2023-04-19T10:25:09.731Z,7.73
2023-04-19T10:27:56.538Z,5.27
2023-04-19T10:30:54.616Z,7.30
2023-04-19T10:33:42.569Z,3.03
2023-04-19T10:36:29.908Z,6.90
2023-04-19T10:39:40.646Z,2.43
2023-04-19T10:43:16.172Z,5.33
2023-04-19T10:46:07.589Z,4.27
2023-04-19T10:48:55.232Z,6.83
2023-04-19T10:51:48.709Z,9.10
2023-04-19T10:54:37.683Z,6.43
2023-04-19T10:57:25.384Z,2.33
2023-04-19T11:00:25.775Z,7.43
2023-04-19T11:03:49.709Z,5.07
2023-04-19T11:06:37.279Z,8.47
2023-04-19T11:09:24.300Z,8.20
2023-04-19T11:12:13.606Z,7.93
2023-04-19T11:15:01.154Z,6.60
2023-04-19T11:18:01.010Z,5.33
2023-04-19T11:20:56.001Z,4.33
2023-04-19T11:23:42.998Z,4.77
2023-04-19T11:26:31.406Z,5.70
2023-04-19T11:29:18.146Z,4.70
2023-04-19T11:32:06.184Z,7.60
2023-04-19T11:34:57.271Z,3.40
2023-04-19T11:37:43.982Z,8.53
2023-04-19T11:40:31.001Z,4.50
2023-04-19T11:43:17.518Z,7.23
2023-04-19T11:46:08.220Z,5.23
2023-04-19T11:48:56.511Z,4.07
2023-04-19T11:51:44.831Z,5.80
2023-04-19T11:54:31.373Z,7.43
2023-04-19T11:57:29.146Z,4.40
2023-04-19T12:00:16.954Z,4.67
2023-04-19T12:03:05.295Z,4.33
2023-04-19T12:05:57.144Z,6.70
2023-04-19T12:08:48.192Z,4.00
2023-04-19T12:11:44.521Z,5.43
2023-04-19T12:14:32.566Z,6.00
2023-04-19T12:17:19.480Z,8.13
2023-04-19T12:20:08.461Z,14.47
2023-04-19T12:22:55.085Z,8.43
2023-04-19T12:25:44.998Z,6.53
2023-04-19T12:28:31.937Z,8.80
2023-04-19T12:31:20.872Z,6.87
2023-04-19T12:34:07.472Z,5.63
2023-04-19T12:36:54.353Z,5.27
2023-04-19T12:39:41.157Z,5.73
2023-04-19T12:42:29.246Z,6.43
2023-04-19T12:45:16.358Z,10.83
2023-04-19T12:48:02.995Z,4.90
2023-04-19T12:50:49.777Z,8.13
2023-04-19T12:53:36.544Z,10.33
2023-04-19T12:56:23.434Z,4.63
2023-04-19T12:59:11.850Z,12.57
2023-04-19T13:01:58.707Z,9.40
2023-04-19T13:04:45.614Z,3.10
2023-04-19T13:07:32.232Z,10.97
2023-04-19T13:10:19.064Z,5.83
2023-04-19T13:13:06.008Z,3.90
2023-04-19T13:15:54.130Z,6.00
2023-04-19T13:18:40.488Z,4.60
2023-04-19T13:21:28.035Z,4.87
2023-04-19T13:24:15.072Z,6.47
2023-04-19T13:27:02.253Z,13.50
2023-04-19T13:29:49.227Z,16.97
2023-04-19T13:32:37.707Z,5.57
2023-04-19T13:35:24.186Z,8.87
2023-04-19T13:38:12.072Z,4.50
2023-04-19T13:40:58.986Z,8.37
2023-04-19T13:43:46.703Z,5.33
2023-04-19T13:46:33.860Z,10.87
2023-04-19T13:49:22.049Z,7.60
2023-04-19T13:52:08.945Z,6.83
2023-04-19T13:54:56.087Z,5.43
2023-04-19T13:57:42.817Z,8.30
2023-04-19T14:00:29.623Z,8.17
2023-04-19T14:03:16.348Z,7.50
2023-04-19T14:06:04.390Z,7.67
2023-04-19T14:08:51.478Z,3.90
2023-04-19T14:11:39.041Z,6.20
2023-04-19T14:14:25.505Z,12.53
2023-04-19T14:17:12.732Z,10.13
2023-04-19T14:19:59.677Z,8.70
2023-04-19T14:22:48.171Z,9.27
2023-04-19T14:25:36.854Z,9.13
2023-04-19T14:28:23.306Z,9.40
2023-04-19T14:31:10.146Z,13.00
2023-04-19T14:33:56.846Z,8.00
2023-04-19T14:36:43.560Z,7.30
2023-04-19T14:39:31.974Z,7.70
2023-04-19T14:42:20.795Z,5.30
2023-04-19T14:45:09.848Z,8.87
2023-04-19T14:47:56.484Z,10.13
2023-04-19T14:50:43.273Z,9.97
2023-04-19T14:53:30.933Z,10.33
2023-04-19T14:56:20.019Z,9.50
2023-04-19T14:59:08.141Z,9.83
2023-04-19T15:01:54.676Z,6.83
2023-04-19T15:04:42.128Z,8.63
2023-04-19T15:07:29.530Z,15.33
2023-04-19T15:10:16.216Z,8.90
2023-04-19T15:13:03.975Z,7.43
2023-04-19T15:15:51.336Z,10.77
2023-04-19T15:18:38.303Z,10.97
2023-04-19T15:21:25.076Z,11.80
2023-04-19T15:24:12.002Z,9.93
2023-04-19T15:26:58.874Z,9.13
2023-04-19T15:29:48.231Z,6.37
2023-04-19T15:32:37.001Z,11.47
2023-04-19T15:35:23.400Z,8.57
2023-04-19T15:38:10.296Z,11.30
2023-04-19T15:40:57.980Z,10.50
2023-04-19T15:43:44.714Z,15.60
2023-04-19T15:46:32.840Z,11.73
2023-04-19T15:49:19.787Z,12.27
2023-04-19T15:52:06.503Z,7.17
2023-04-19T15:54:53.826Z,13.93
2023-04-19T15:57:40.510Z,8.77
2023-04-19T16:00:27.716Z,13.93
2023-04-19T16:03:15.957Z,9.77
2023-04-19T16:06:02.607Z,14.43
2023-04-19T16:08:49.406Z,9.87
2023-04-19T16:11:36.114Z,12.07
2023-04-19T16:14:25.082Z,7.50
2023-04-19T16:17:11.947Z,7.37
2023-04-19T16:20:00.199Z,7.97
2023-04-19T16:22:46.675Z,7.50
2023-04-19T16:25:34.406Z,8.23
2023-04-19T16:28:21.452Z,8.60
2023-04-19T16:31:13.925Z,12.50
2023-04-19T16:34:00.757Z,9.07
2023-04-19T16:36:48.946Z,5.60
2023-04-19T16:39:35.599Z,9.03
2023-04-19T16:42:22.314Z,9.13
2023-04-19T16:45:10.190Z,11.87
2023-04-19T16:47:56.908Z,11.10
2023-04-19T16:50:43.608Z,8.40
2023-04-19T16:53:32.096Z,7.77
2023-04-19T16:56:19.473Z,10.53
2023-04-19T16:59:06.452Z,8.27
2023-04-19T17:01:57.890Z,14.43
2023-04-19T17:04:46.429Z,16.77
2023-04-19T17:07:33.582Z,11.47
2023-04-19T17:10:21.883Z,11.63
2023-04-19T17:13:09.058Z,9.43
2023-04-19T17:15:55.527Z,11.07
2023-04-19T17:18:42.354Z,7.73
2023-04-19T17:21:29.160Z,7.70
2023-04-19T17:24:16.329Z,11.10
2023-04-19T17:27:04.585Z,8.70
2023-04-19T17:29:51.445Z,9.13
2023-04-19T17:32:38.196Z,9.80
2023-04-19T17:35:26.107Z,9.47
2023-04-19T17:38:12.827Z,10.67
2023-04-19T17:40:59.785Z,12.60
2023-04-19T17:43:48.768Z,10.00
2023-04-19T17:46:35.339Z,11.83
2023-04-19T17:49:22.218Z,10.33
2023-04-19T17:52:09.078Z,13.23
2023-04-19T17:54:56.270Z,9.23
2023-04-19T17:57:42.907Z,15.20
2023-04-19T18:00:31.035Z,13.90
2023-04-19T18:03:18.645Z,11.53
2023-04-19T18:06:06.843Z,13.10
2023-04-19T18:08:55.310Z,16.20
2023-04-19T18:11:43.581Z,15.80
2023-04-19T18:14:31.479Z,17.57
2023-04-19T18:17:20.443Z,14.37
2023-04-19T18:20:09.190Z,14.23
2023-04-19T18:23:00.230Z,20.27
2023-04-19T18:25:54.009Z,14.97
2023-04-19T18:28:41.095Z,13.73
2023-04-19T18:31:28.464Z,14.07
2023-04-19T18:34:17.409Z,16.37
2023-04-19T18:37:05.436Z,15.00
2023-04-19T18:39:52.097Z,15.87
2023-04-19T18:42:39.160Z,20.60
2023-04-19T18:45:26.343Z,16.53
2023-04-19T18:48:15.238Z,28.07
2023-04-19T18:51:05.646Z,19.77
2023-04-19T18:53:52.290Z,15.97
2023-04-19T18:59:28.373Z,18.57
2023-04-19T19:02:15.858Z,14.00
2023-04-19T19:05:03.453Z,18.03
2023-04-19T19:07:52.404Z,23.70
2023-04-19T19:11:08.760Z,18.83
2023-04-19T19:13:46.067Z,18.53
2023-04-19T19:16:32.479Z,18.73
2023-04-19T19:19:20.756Z,14.10
2023-04-19T19:22:22.395Z,13.47
2023-04-19T19:25:14.006Z,20.00
2023-04-19T19:28:06.488Z,14.80
2023-04-19T19:30:54.910Z,19.63
2023-04-19T19:33:41.566Z,14.93
2023-04-19T19:36:28.761Z,15.10
2023-04-19T19:39:15.681Z,16.77
2023-04-19T19:42:06.340Z,17.23
2023-04-19T19:44:55.418Z,14.30
2023-04-19T19:47:45.479Z,17.83
2023-04-19T19:53:22.211Z,16.30
2023-04-19T19:56:18.251Z,15.93
2023-04-19T19:59:09.607Z,18.13
2023-04-19T20:01:56.485Z,18.97
2023-04-19T20:04:43.361Z,26.70
2023-04-19T20:07:58.308Z,20.27
2023-04-19T20:10:36.738Z,19.50
2023-04-19T20:13:23.409Z,20.00
2023-04-19T20:16:11.412Z,14.40
2023-04-19T20:18:59.576Z,21.43
2023-04-19T20:21:47.069Z,14.00
2023-04-19T20:24:35.060Z,12.60
2023-04-19T20:27:21.843Z,17.63
2023-04-19T20:30:09.908Z,19.33
2023-04-19T20:32:58.164Z,19.33
2023-04-19T20:35:44.434Z,16.10
2023-04-19T20:38:31.991Z,25.67
2023-04-19T20:41:19.497Z,13.07
2023-04-19T20:44:06.382Z,22.43
2023-04-19T20:46:52.760Z,16.53
2023-04-19T20:49:41.201Z,16.33
2023-04-19T20:52:28.000Z,11.43
2023-04-19T20:55:15.416Z,14.93
2023-04-19T20:58:02.609Z,18.20
2023-04-19T21:00:50.153Z,17.03
2023-04-19T21:03:37.297Z,17.20
2023-04-19T21:06:25.167Z,19.63
2023-04-19T21:09:12.053Z,12.67
2023-04-19T21:11:58.615Z,15.77
2023-04-19T21:14:49.266Z,17.13
2023-04-19T21:17:36.725Z,13.90
2023-04-19T21:20:23.771Z,13.57
2023-04-19T21:23:12.425Z,12.87
2023-04-19T21:25:58.939Z,13.83
2023-04-19T21:28:45.754Z,14.30
2023-04-19T21:31:32.511Z,16.03
2023-04-19T21:34:19.285Z,10.10
2023-04-19T21:37:06.349Z,15.83
2023-04-19T21:39:54.524Z,13.43
2023-04-19T21:42:41.342Z,11.83
2023-04-19T21:45:28.172Z,16.37
2023-04-19T21:48:14.964Z,15.40
2023-04-19T21:51:02.222Z,11.40
2023-04-19T21:53:49.011Z,11.03
2023-04-19T21:56:38.811Z,12.50
2023-04-19T21:59:25.758Z,17.50
2023-04-19T22:02:12.547Z,12.37
2023-04-19T22:05:00.350Z,12.90
2023-04-19T22:07:47.551Z,12.73
2023-04-19T22:10:34.922Z,13.07
2023-04-19T22:13:23.343Z,12.83
2023-04-19T22:16:10.118Z,13.90
2023-04-19T22:18:57.899Z,13.00
2023-04-19T22:21:44.800Z,12.30
2023-04-19T22:24:31.525Z,10.00
2023-04-19T22:27:18.445Z,13.13
2023-04-19T22:30:08.456Z,9.80
2023-04-19T22:32:55.485Z,7.83
2023-04-19T22:35:42.036Z,10.73
2023-04-19T22:38:29.008Z,8.13
2023-04-19T22:41:16.796Z,8.70
2023-04-19T22:44:04.568Z,9.90
2023-04-19T22:46:52.694Z,13.60
2023-04-19T22:49:42.990Z,6.80
2023-04-19T22:52:29.882Z,5.53
2023-04-19T22:55:16.642Z,10.27
2023-04-19T22:58:04.885Z,5.67
2023-04-19T23:00:51.707Z,6.97
2023-04-19T23:03:49.061Z,5.80
2023-04-19T23:06:36.981Z,6.50
2023-04-19T23:09:25.300Z,9.17
2023-04-19T23:12:16.409Z,7.27
2023-04-19T23:15:04.031Z,7.87
2023-04-19T23:17:50.739Z,6.63
2023-04-19T23:20:38.968Z,7.13
2023-04-19T23:23:27.877Z,8.03
2023-04-19T23:26:14.234Z,10.80
2023-04-19T23:29:00.942Z,6.27
2023-04-19T23:31:47.625Z,6.17
2023-04-19T23:34:34.364Z,9.47
2023-04-19T23:37:22.484Z,7.97
2023-04-19T23:40:10.535Z,8.93
2023-04-19T23:42:57.369Z,8.90
2023-04-19T23:45:44.062Z,6.10
2023-04-19T23:48:30.947Z,8.17
2023-04-19T23:51:17.943Z,6.60
2023-04-19T23:54:06.267Z,10.33
2023-04-19T23:56:53.484Z,10.77
2023-04-19T23:59:40.251Z,8.07
